Terminal Aerodrome Forecast
Issued by NWS

Home | Current Version | Previous Version | Text Only | Print | Product List | Glossary On
Versions: 1 2 3 4 5 6 7 8 9 10 11 12 13 14 15 16 17 18 19 20 21 22 23 24 25 26
000
FTUS44 KTSA 301720
TAFMLC
TAF
KMLC 301720Z 3018/3118 VRB05KT P6SM VCSH OVC100
      TEMPO 3018/3022 4SM -SHRA BR OVC035
     FM302200 08006KT 4SM -SHRA BR OVC025
     FM310400 04006KT 5SM -SHRA BR OVC007
     FM311000 02004KT 4SM BR OVC007
     FM311500 01010KT P6SM OVC015=

USA.gov is the U.S. government's official web portal to all federal, state and local government web resources and services.